ADDS TAF Data INFO
IDs: Format: Raw Decoded Include METARs

Data at: 2138 UTC 24 Feb 2018

KDRO 242053Z AUTO 25016G22KT 10SM CLR M01/M14 A2994 RMK AO2 PK WND 25026/2031 SLP178 T10061144 58016

KDRO 242002Z 2420/2518 25018G26KT P6SM FEW070 FEW250
  FM250100 VRB05KT P6SM SCT070 BKN150